Map

Track Data

SID SEASON NUMBER BASIN SUBBASIN NAME ISO_TIME NATURE LAT LON WMO_WIND WMO_PRES WMO_AGENCY TRACK_TYPE DIST2LAND LANDFALL IFLAG USA_AGENCY USA_ATCF_ID USA_LAT USA_LON USA_RECORD USA_STATUS USA_WIND USA_PRES USA_SSHS USA_R34_NE USA_R34_SE USA_R34_SW USA_R34_NW USA_R50_NE USA_R50_SE USA_R50_SW USA_R50_NW USA_R64_NE USA_R64_SE USA_R64_SW USA_R64_NW USA_POCI USA_ROCI USA_RMW USA_EYE TOKYO_LAT TOKYO_LON TOKYO_GRADE TOKYO_WIND TOKYO_PRES TOKYO_R50_DIR TOKYO_R50_LONG TOKYO_R50_SHORT TOKYO_R30_DIR TOKYO_R30_LONG TOKYO_R30_SHORT TOKYO_LAND CMA_LAT CMA_LON CMA_CAT CMA_WIND CMA_PRES HKO_LAT HKO_LON HKO_CAT HKO_WIND HKO_PRES NEWDELHI_LAT NEWDELHI_LON NEWDELHI_GRADE NEWDELHI_WIND NEWDELHI_PRES NEWDELHI_CI NEWDELHI_DP NEWDELHI_POCI REUNION_LAT REUNION_LON REUNION_TYPE REUNION_WIND REUNION_PRES REUNION_TNUM REUNION_CI REUNION_RMW REUNION_R34_NE REUNION_R34_SE REUNION_R34_SW REUNION_R34_NW REUNION_R50_NE REUNION_R50_SE REUNION_R50_SW REUNION_R50_NW REUNION_R64_NE REUNION_R64_SE REUNION_R64_SW REUNION_R64_NW BOM_LAT BOM_LON BOM_TYPE BOM_WIND BOM_PRES BOM_TNUM BOM_CI BOM_RMW BOM_R34_NE BOM_R34_SE BOM_R34_SW BOM_R34_NW BOM_R50_NE BOM_R50_SE BOM_R50_SW BOM_R50_NW BOM_R64_NE BOM_R64_SE BOM_R64_SW BOM_R64_NW BOM_ROCI BOM_POCI BOM_EYE BOM_POS_METHOD BOM_PRES_METHOD NADI_LAT NADI_LON NADI_CAT NADI_WIND NADI_PRES WELLINGTON_LAT WELLINGTON_LON WELLINGTON_WIND WELLINGTON_PRES DS824_LAT DS824_LON DS824_STAGE DS824_WIND DS824_PRES TD9636_LAT TD9636_LON TD9636_STAGE TD9636_WIND TD9636_PRES TD9635_LAT TD9635_LON TD9635_WIND TD9635_PRES TD9635_ROCI NEUMANN_LAT NEUMANN_LON NEUMANN_CLASS NEUMANN_WIND NEUMANN_PRES MLC_LAT MLC_LON MLC_CLASS MLC_WIND MLC_PRES USA_GUST BOM_GUST BOM_GUST_PER REUNION_GUST REUNION_GUST_PER USA_SEAHGT USA_SEARAD_NE USA_SEARAD_SE USA_SEARAD_SW USA_SEARAD_NW STORM_SPEED STORM_DIR
1951239N12334 1951 62 NA NA DOG 1951-08-27 06:00:00 TS 12.3000 -25.6000 25 hurdat_atl main 916 916 O_____________ hurdat_atl AL051951 12.3000 -25.6000 TD 25 -1 10 270
1951239N12334 1951 62 NA NA DOG 1951-08-27 09:00:00 TS 12.3002 -26.1025 main 968 968 P_____________ AL051951 12.3002 -26.1025 TD 25 -1 10 270
1951239N12334 1951 62 NA NA DOG 1951-08-27 12:00:00 TS 12.3000 -26.6000 25 hurdat_atl main 1020 1020 O_____________ hurdat_atl AL051951 12.3000 -26.6000 TD 25 -1 10 270
1951239N12334 1951 62 NA NA DOG 1951-08-27 15:00:00 TS 12.2999 -27.0925 main 1072 1072 P_____________ AL051951 12.2999 -27.0925 TD 25 -1 10 270
1951239N12334 1951 62 NA NA DOG 1951-08-27 18:00:00 TS 12.3000 -27.6000 25 hurdat_atl main 1125 1125 O_____________ hurdat_atl AL051951 12.3000 -27.6000 TD 25 -1 10 270
1951239N12334 1951 62 NA NA DOG 1951-08-27 21:00:00 TS 12.2999 -28.1425 main 1177 1177 P_____________ AL051951 12.2999 -28.1425 TD 25 -1 11 270
1951239N12334 1951 62 NA NA DOG 1951-08-28 00:00:00 TS 12.3000 -28.7000 25 hurdat_atl main 1240 1240 O_____________ hurdat_atl AL051951 12.3000 -28.7000 TD 25 -1 11 270
1951239N12334 1951 62 NA NA DOG 1951-08-28 03:00:00 TS 12.2998 -29.2425 main 1293 1293 P_____________ AL051951 12.2998 -29.2425 TD 25 -1 11 270
1951239N12334 1951 62 NA NA DOG 1951-08-28 06:00:00 TS 12.3000 -29.8000 25 hurdat_atl main 1357 1357 O_____________ hurdat_atl AL051951 12.3000 -29.8000 TD 25 -1 11 270
1951239N12334 1951 62 NA NA DOG 1951-08-28 09:00:00 TS 12.2999 -30.3850 main 1420 1420 P_____________ AL051951 12.2999 -30.3850 TD 25 -1 12 270
1951239N12334 1951 62 NA NA DOG 1951-08-28 12:00:00 TS 12.3000 -31.0000 25 hurdat_atl main 1484 1484 O_____________ hurdat_atl AL051951 12.3000 -31.0000 TD 25 -1 12 270
1951239N12334 1951 62 NA NA DOG 1951-08-28 15:00:00 TS 12.2999 -31.6425 main 1548 1548 P_____________ AL051951 12.2999 -31.6425 TD 25 -1 13 270
1951239N12334 1951 62 NA NA DOG 1951-08-28 18:00:00 TS 12.3000 -32.3000 25 hurdat_atl main 1623 1623 O_____________ hurdat_atl AL051951 12.3000 -32.3000 TD 25 -1 13 270
1951239N12334 1951 62 NA NA DOG 1951-08-28 21:00:00 TS 12.2998 -32.9500 main 1687 1687 P_____________ AL051951 12.2998 -32.9500 TD 25 -1 13 270
1951239N12334 1951 62 NA NA DOG 1951-08-29 00:00:00 TS 12.3000 -33.6000 25 hurdat_atl main 1761 1761 O_____________ hurdat_atl AL051951 12.3000 -33.6000 TD 25 -1 13 270
1951239N12334 1951 62 NA NA DOG 1951-08-29 03:00:00 TS 12.2998 -34.2425 main 1812 1787 P_____________ AL051951 12.2998 -34.2425 TD 25 -1 13 270
1951239N12334 1951 62 NA NA DOG 1951-08-29 06:00:00 TS 12.3000 -34.9000 25 hurdat_atl main 1787 1768 O_____________ hurdat_atl AL051951 12.3000 -34.9000 TD 25 -1 13 270
1951239N12334 1951 62 NA NA DOG 1951-08-29 09:00:00 TS 12.2922 -35.5701 main 1765 1746 P_____________ AL051951 12.2922 -35.5701 TD 25 -1 14 270
1951239N12334 1951 62 NA NA DOG 1951-08-29 12:00:00 TS 12.3000 -36.3000 25 hurdat_atl main 1746 1729 O_____________ hurdat_atl AL051951 12.3000 -36.3000 TD 25 -1 15 272
1951239N12334 1951 62 NA NA DOG 1951-08-29 15:00:00 TS 12.3350 -37.1350 main 1729 1721 P_____________ AL051951 12.3350 -37.1350 TD 25 -1 17 273
1951239N12334 1951 62 NA NA DOG 1951-08-29 18:00:00 TS 12.4000 -38.0000 25 hurdat_atl main 1721 1653 O_____________ hurdat_atl AL051951 12.4000 -38.0000 TD 25 -1 16 275
1951239N12334 1951 62 NA NA DOG 1951-08-29 21:00:00 TS 12.4922 -38.8075 main 1653 1587 P_____________ AL051951 12.4922 -38.8075 TD 25 -1 16 277
1951239N12334 1951 62 NA NA DOG 1951-08-30 00:00:00 TS 12.6000 -39.6000 25 hurdat_atl main 1587 1523 O_____________ hurdat_atl AL051951 12.6000 -39.6000 TD 25 -1 16 278
1951239N12334 1951 62 NA NA DOG 1951-08-30 03:00:00 TS 12.6998 -40.4001 main 1523 1462 P_____________ AL051951 12.6998 -40.4001 TD 27 -1 16 277
1951239N12334 1951 62 NA NA DOG 1951-08-30 06:00:00 TS 12.8000 -41.2000 30 hurdat_atl main 1462 1404 O_____________ hurdat_atl AL051951 12.8000 -41.2000 TD 30 -1 16 277
1951239N12334 1951 62 NA NA DOG 1951-08-30 09:00:00 TS 12.8998 -42.0001 main 1404 1350 P_____________ AL051951 12.8998 -42.0001 TD 30 -1 16 277
1951239N12334 1951 62 NA NA DOG 1951-08-30 12:00:00 TS 13.0000 -42.8000 30 hurdat_atl main 1350 1306 O_____________ hurdat_atl AL051951 13.0000 -42.8000 TD 30 -1 16 277
1951239N12334 1951 62 NA NA DOG 1951-08-30 15:00:00 TS 13.0997 -43.5926 main 1299 1252 P_____________ AL051951 13.0997 -43.5926 TD 30 -1 16 277
1951239N12334 1951 62 NA NA DOG 1951-08-30 18:00:00 TS 13.2000 -44.4000 30 hurdat_atl main 1252 1210 O_____________ hurdat_atl AL051951 13.2000 -44.4000 TD 30 -1 16 277
1951239N12334 1951 62 NA NA DOG 1951-08-30 21:00:00 TS 13.2999 -45.2501 main 1204 1162 P_____________ AL051951 13.2999 -45.2501 TD 32 -1 17 277
1951239N12334 1951 62 NA NA DOG 1951-08-31 00:00:00 TS 13.4000 -46.1000 35 hurdat_atl main 1162 1120 O_____________ hurdat_atl AL051951 13.4000 -46.1000 TS 35 0 16 277
1951239N12334 1951 62 NA NA DOG 1951-08-31 03:00:00 TS 13.5071 -46.9000 main 1120 1083 P_____________ AL051951 13.5071 -46.9000 TS 37 0 16 277
1951239N12334 1951 62 NA NA DOG 1951-08-31 06:00:00 TS 13.6000 -47.7000 40 hurdat_atl main 1083 1047 O_____________ hurdat_atl AL051951 13.6000 -47.7000 TS 40 0 16 275
1951239N12334 1951 62 NA NA DOG 1951-08-31 09:00:00 TS 13.6573 -48.5426 main 1052 1012 P_____________ AL051951 13.6573 -48.5426 TS 42 0 17 273
1951239N12334 1951 62 NA NA DOG 1951-08-31 12:00:00 TS 13.7000 -49.4000 45 hurdat_atl main 1012 977 O_____________ hurdat_atl AL051951 13.7000 -49.4000 TS 45 0 17 273
1951239N12334 1951 62 NA NA DOG 1951-08-31 15:00:00 TS 13.7497 -50.2500 main 972 947 P_____________ AL051951 13.7497 -50.2500 TS 45 0 17 273
1951239N12334 1951 62 NA NA DOG 1951-08-31 18:00:00 TS 13.8000 -51.1000 45 hurdat_atl main 947 920 O_____________ hurdat_atl AL051951 13.8000 -51.1000 TS 45 0 17 273
1951239N12334 1951 62 NA NA DOG 1951-08-31 21:00:00 TS 13.8498 -51.9575 main 917 909 P_____________ AL051951 13.8498 -51.9575 TS 47 0 17 273
1951239N12334 1951 62 NA NA DOG 1951-09-01 00:00:00 TS 13.9000 -52.8000 50 hurdat_atl main 909 880 O_____________ hurdat_atl AL051951 13.9000 -52.8000 TS 50 0 16 274
1951239N12334 1951 62 NA NA DOG 1951-09-01 03:00:00 TS 13.9497 -53.6075 main 880 806 P_____________ AL051951 13.9497 -53.6075 TS 50 0 16 274
1951239N12334 1951 62 NA NA DOG 1951-09-01 06:00:00 TS 14.0000 -54.4000 50 hurdat_atl main 806 736 O_____________ hurdat_atl AL051951 14.0000 -54.4000 TS 50 0 16 274
1951239N12334 1951 62 NA NA DOG 1951-09-01 09:00:00 TS 14.0574 -55.2224 main 736 663 P_____________ AL051951 14.0574 -55.2224 TS 52 0 16 274
1951239N12334 1951 62 NA NA DOG 1951-09-01 12:00:00 TS 14.1000 -56.0000 55 hurdat_atl main 663 602 O_____________ hurdat_atl AL051951 14.1000 -56.0000 TS 55 0 14 272
1951239N12334 1951 62 NA NA DOG 1951-09-01 15:00:00 TS 14.1072 -56.6875 main 602 553 P_____________ AL051951 14.1072 -56.6875 TS 57 0 13 270
1951239N12334 1951 62 NA NA DOG 1951-09-01 18:00:00 TS 14.1000 -57.3000 60 hurdat_atl main 553 515 O_____________ hurdat_atl AL051951 14.1000 -57.3000 TS 60 0 11 270
1951239N12334 1951 62 NA NA DOG 1951-09-01 21:00:00 TS 14.0997 -57.8500 main 515 474 P_____________ AL051951 14.0997 -57.8500 TS 62 0 11 270
1951239N12334 1951 62 NA NA DOG 1951-09-02 00:00:00 TS 14.1000 -58.4000 65 hurdat_atl main 474 438 O_____________ hurdat_atl AL051951 14.1000 -58.4000 HU 65 1 11 270
1951239N12334 1951 62 NA NA DOG 1951-09-02 03:00:00 TS 14.0924 -59.0276 main 438 406 P_____________ AL051951 14.0924 -59.0276 HU 67 1 13 270
1951239N12334 1951 62 NA CS DOG 1951-09-02 06:00:00 TS 14.1000 -59.7000 70 hurdat_atl main 406 388 O_____________ hurdat_atl AL051951 14.1000 -59.7000 HU 70 1 13 273
1951239N12334 1951 62 NA CS DOG 1951-09-02 09:00:00 TS 14.1497 -60.3774 main 386 386 P_____________ AL051951 14.1497 -60.3774 HU 75 1 14 274
1951239N12334 1951 62 NA CS DOG 1951-09-02 12:00:00 TS 14.2000 -61.1000 80 hurdat_atl main 391 391 O_____________ hurdat_atl AL051951 14.2000 -61.1000 HU 80 1 15 272
1951239N12334 1951 62 NA CS DOG 1951-09-02 15:00:00 TS 14.1999 -61.8852 main 392 391 P_____________ AL051951 14.1999 -61.8852 HU 77 1 16 270
1951239N12334 1951 62 NA CS DOG 1951-09-02 18:00:00 TS 14.2000 -62.7000 75 hurdat_atl main 391 391 O_____________ hurdat_atl AL051951 14.2000 -62.7000 HU 75 1 16 272
1951239N12334 1951 62 NA CS DOG 1951-09-02 21:00:00 TS 14.2423 -63.5074 main 394 394 P_____________ AL051951 14.2423 -63.5074 HU 72 1 16 274
1951239N12334 1951 62 NA CS DOG 1951-09-03 00:00:00 TS 14.3000 -64.3000 70 992 hurdat_atl main 414 414 O_____________ hurdat_atl AL051951 14.3000 -64.3000 HU 70 992 1 15 274
1951239N12334 1951 62 NA CS DOG 1951-09-03 03:00:00 TS 14.3421 -65.0501 main 419 394 P_____________ AL051951 14.3421 -65.0501 HU 70 1 15 274
1951239N12334 1951 62 NA CS DOG 1951-09-03 06:00:00 TS 14.4000 -65.8000 70 hurdat_atl main 394 380 O_____________ hurdat_atl AL051951 14.4000 -65.8000 HU 70 1 15 276
1951239N12334 1951 62 NA CS DOG 1951-09-03 09:00:00 TS 14.4920 -66.5626 main 381 369 P_____________ AL051951 14.4920 -66.5626 HU 70 1 16 277
1951239N12334 1951 62 NA CS DOG 1951-09-03 12:00:00 TS 14.6000 -67.4000 70 hurdat_atl main 369 338 O_____________ hurdat_atl AL051951 14.6000 -67.4000 HU 70 1 18 277
1951239N12334 1951 62 NA CS DOG 1951-09-03 15:00:00 TS 14.6999 -68.3701 main 333 309 P_____________ AL051951 14.6999 -68.3701 HU 70 1 19 276
1951239N12334 1951 62 NA CS DOG 1951-09-03 18:00:00 TS 14.8000 -69.4000 70 993 hurdat_atl main 307 302 O_____________ hurdat_atl AL051951 14.8000 -69.4000 HU 70 993 1 20 276
1951239N12334 1951 62 NA CS DOG 1951-09-03 21:00:00 TS 14.9074 -70.4299 main 304 289 P_____________ AL051951 14.9074 -70.4299 HU 67 1 19 276
1951239N12334 1951 62 NA CS DOG 1951-09-04 00:00:00 TS 15.0000 -71.4000 65 hurdat_atl main 290 287 O_____________ hurdat_atl AL051951 15.0000 -71.4000 HU 65 1 18 275
1951239N12334 1951 62 NA CS DOG 1951-09-04 03:00:00 TS 15.0647 -72.2600 main 295 295 P_____________ AL051951 15.0647 -72.2600 HU 60 0 16 274
1951239N12334 1951 62 NA CS DOG 1951-09-04 06:00:00 TS 15.1000 -73.0000 55 hurdat_atl main 327 325 O_____________ hurdat_atl AL051951 15.1000 -73.0000 TS 55 0 13 272
1951239N12334 1951 62 NA CS DOG 1951-09-04 09:00:00 TS 15.0996 -73.6376 main 325 324 P_____________ AL051951 15.0996 -73.6376 TS 50 0 12 270
1951239N12334 1951 62 NA CS DOG 1951-09-04 12:00:00 TS 15.1000 -74.2000 45 1004 hurdat_atl main 326 326 O_____________ hurdat_atl AL051951 15.1000 -74.2000 TS 45 1004 0 11 272
1951239N12334 1951 62 NA CS DOG 1951-09-04 15:00:00 TS 15.1348 -74.7575 main 338 317 P_____________ AL051951 15.1348 -74.7575 TS 42 0 11 275
1951239N12334 1951 62 NA CS DOG 1951-09-04 18:00:00 TS 15.2000 -75.3000 40 hurdat_atl main 317 294 O_____________ hurdat_atl AL051951 15.2000 -75.3000 TS 40 0 10 279
1951239N12334 1951 62 NA CS DOG 1951-09-04 21:00:00 TS 15.2996 -75.8200 main 294 271 P_____________ AL051951 15.2996 -75.8200 TS 37 0 11 281
1951239N12334 1951 62 NA CS DOG 1951-09-05 00:00:00 TS 15.4000 -76.4000 35 hurdat_atl main 271 246 O_____________ hurdat_atl AL051951 15.4000 -76.4000 TS 35 0 13 278
1951239N12334 1951 62 NA CS DOG 1951-09-05 03:00:00 TS 15.4649 -77.1125 main 246 246 P_____________ AL051951 15.4649 -77.1125 TS 32 -1 15 274
1951239N12334 1951 62 NA CS DOG 1951-09-05 06:00:00 TS 15.5000 -77.9000 30 hurdat_atl main 257 257 O_____________ hurdat_atl AL051951 15.5000 -77.9000 TD 30 -1 15 272
1951239N12334 1951 62 NA CS DOG 1951-09-05 09:00:00 TS 15.5080 -78.7000 main 288 288 P_____________ AL051951 15.5080 -78.7000 TD 27 -1 15 270
1951239N12334 1951 62 NA CS DOG 1951-09-05 12:00:00 TS 15.5000 -79.5000 25 hurdat_atl main 324 O_____________ hurdat_atl AL051951 15.5000 -79.5000 TD 25 -1 15 269

About IBTrACS Database

This database is a web-friendly format of International Best Track Archive for Climate Stewardship (IBTrACS), a global best track data archive curated by NOAA dating back to 1842.

Updated: 2021-12-03